sensor_id;sensor_type;location;lat;lon;timestamp;pressure;altitude;pressure_sealevel;temperature;humidity
60228;BME280;46091;46.512;6.626;2023-07-13T00:00:36;96954.88;;;27.02;49.72
60228;BME280;46091;46.512;6.626;2023-07-13T00:02:39;96955.69;;;27.02;49.62
60228;BME280;46091;46.512;6.626;2023-07-13T00:04:42;96954.59;;;27.03;49.49
60228;BME280;46091;46.512;6.626;2023-07-13T00:06:46;96954.88;;;27.02;49.52
60228;BME280;46091;46.512;6.626;2023-07-13T00:08:50;96952.75;;;26.98;49.63
60228;BME280;46091;46.512;6.626;2023-07-13T00:10:54;96939.97;;;26.99;49.62
60228;BME280;46091;46.512;6.626;2023-07-13T00:12:57;96938.06;;;26.99;49.64
60228;BME280;46091;46.512;6.626;2023-07-13T00:15:02;96934.84;;;26.97;49.73
60228;BME280;46091;46.512;6.626;2023-07-13T00:17:06;96939.97;;;26.99;49.77
60228;BME280;46091;46.512;6.626;2023-07-13T00:19:09;96938.06;;;26.99;49.87
60228;BME280;46091;46.512;6.626;2023-07-13T00:21:13;96940.78;;;26.99;49.69
60228;BME280;46091;46.512;6.626;2023-07-13T00:23:16;96937.28;;;26.99;49.80
60228;BME280;46091;46.512;6.626;2023-07-13T00:25:22;96931.03;;;26.98;49.78
60228;BME280;46091;46.512;6.626;2023-07-13T00:27:30;96936.97;;;27.01;49.76
60228;BME280;46091;46.512;6.626;2023-07-13T00:29:33;96937.78;;;27.01;49.76
60228;BME280;46091;46.512;6.626;2023-07-13T00:31:36;96939.41;;;27.02;49.73
60228;BME280;46091;46.512;6.626;2023-07-13T00:33:39;96933.19;;;27.02;49.75
60228;BME280;46091;46.512;6.626;2023-07-13T00:35:42;96926.13;;;27.01;49.85
60228;BME280;46091;46.512;6.626;2023-07-13T00:37:46;96930.75;;;27.00;50.00
60228;BME280;46091;46.512;6.626;2023-07-13T00:39:49;96930.75;;;27.00;49.82
60228;BME280;46091;46.512;6.626;2023-07-13T00:41:53;96926.13;;;27.01;49.88
60228;BME280;46091;46.512;6.626;2023-07-13T00:43:56;96928.03;;;27.00;49.86
60228;BME280;46091;46.512;6.626;2023-07-13T00:46:14;96923.72;;;26.99;49.87
60228;BME280;46091;46.512;6.626;2023-07-13T00:48:19;96926.41;;;26.99;49.90
60228;BME280;46091;46.512;6.626;2023-07-13T00:50:23;96926.41;;;26.99;49.79
60228;BME280;46091;46.512;6.626;2023-07-13T00:52:26;96934.56;;;26.99;49.92
60228;BME280;46091;46.512;6.626;2023-07-13T00:54:34;96933.75;;;26.98;49.76
60228;BME280;46091;46.512;6.626;2023-07-13T00:56:39;96930.75;;;27.00;49.80
60228;BME280;46091;46.512;6.626;2023-07-13T00:58:44;96929.94;;;26.99;49.78
60228;BME280;46091;46.512;6.626;2023-07-13T01:00:48;96930.75;;;27.00;49.67
60228;BME280;46091;46.512;6.626;2023-07-13T01:02:52;96936.97;;;27.01;49.70
60228;BME280;46091;46.512;6.626;2023-07-13T01:04:56;96928.84;;;27.01;49.70
60228;BME280;46091;46.512;6.626;2023-07-13T01:06:59;96925.84;;;27.02;49.74
60228;BME280;46091;46.512;6.626;2023-07-13T01:09:03;96930.19;;;27.03;49.76
60228;BME280;46091;46.512;6.626;2023-07-13T01:11:04;96929.63;;;27.01;49.66
60228;BME280;46091;46.512;6.626;2023-07-13T01:13:10;96925.91;;;26.97;50.04
60228;BME280;46091;46.512;6.626;2023-07-13T01:15:40;96926.72;;;26.97;49.85
60228;BME280;46091;46.512;6.626;2023-07-13T01:17:44;96930.25;;;26.98;49.81
60228;BME280;46091;46.512;6.626;2023-07-13T01:19:47;96933.25;;;26.96;49.95
60228;BME280;46091;46.512;6.626;2023-07-13T01:21:52;96929.19;;;26.94;49.86
60228;BME280;46091;46.512;6.626;2023-07-13T01:23:55;96936.81;;;26.92;49.75
60228;BME280;46091;46.512;6.626;2023-07-13T01:25:59;96934.50;;;26.85;49.80
60228;BME280;46091;46.512;6.626;2023-07-13T01:28:02;96923.72;;;26.80;49.59
60228;BME280;46091;46.512;6.626;2023-07-13T01:30:06;96919.38;;;26.79;49.63
60228;BME280;46091;46.512;6.626;2023-07-13T01:32:11;96925.41;;;26.76;49.39
60228;BME280;46091;46.512;6.626;2023-07-13T01:34:14;96922.19;;;26.74;49.33
60228;BME280;46091;46.512;6.626;2023-07-13T01:36:17;96926.81;;;26.74;49.38
60228;BME280;46091;46.512;6.626;2023-07-13T01:38:22;96919.53;;;26.69;49.27
60228;BME280;46091;46.512;6.626;2023-07-13T01:40:25;96916.03;;;26.68;49.28
60228;BME280;46091;46.512;6.626;2023-07-13T01:42:27;96923.06;;;26.69;49.21
60228;BME280;46091;46.512;6.626;2023-07-13T01:44:30;96916.53;;;26.70;49.09
60228;BME280;46091;46.512;6.626;2023-07-13T01:46:33;96917.88;;;26.73;49.14
60228;BME280;46091;46.512;6.626;2023-07-13T01:48:36;96925.72;;;26.75;49.14
60228;BME280;46091;46.512;6.626;2023-07-13T01:50:39;96918.38;;;26.75;48.92
60228;BME280;46091;46.512;6.626;2023-07-13T01:52:42;96923.50;;;26.77;48.88
60228;BME280;46091;46.512;6.626;2023-07-13T01:54:46;96923.22;;;26.78;48.74
60228;BME280;46091;46.512;6.626;2023-07-13T01:56:49;96924.00;;;26.79;48.67
60228;BME280;46091;46.512;6.626;2023-07-13T01:58:52;96915.06;;;26.78;48.71
60228;BME280;46091;46.512;6.626;2023-07-13T02:00:55;96918.13;;;26.72;48.55
60228;BME280;46091;46.512;6.626;2023-07-13T02:02:58;96923.06;;;26.69;48.68
60228;BME280;46091;46.512;6.626;2023-07-13T02:05:01;96915.00;;;26.64;48.78
60228;BME280;46091;46.512;6.626;2023-07-13T02:07:04;96913.25;;;26.55;48.63
60228;BME280;46091;46.512;6.626;2023-07-13T02:09:07;96911.13;;;26.52;48.89
60228;BME280;46091;46.512;6.626;2023-07-13T02:11:12;96917.06;;;26.54;48.79
60228;BME280;46091;46.512;6.626;2023-07-13T02:13:15;96914.25;;;26.59;48.89
60228;BME280;46091;46.512;6.626;2023-07-13T02:15:18;96921.53;;;26.63;48.79
60228;BME280;46091;46.512;6.626;2023-07-13T02:17:21;96917.56;;;26.56;48.76
60228;BME280;46091;46.512;6.626;2023-07-13T02:19:24;96915.19;;;26.49;48.58
60228;BME280;46091;46.512;6.626;2023-07-13T02:21:27;96918.09;;;26.34;48.81
60228;BME280;46091;46.512;6.626;2023-07-13T02:23:30;96920.13;;;26.23;49.01
60228;BME280;46091;46.512;6.626;2023-07-13T02:25:33;96915.50;;;26.24;49.04
60228;BME280;46091;46.512;6.626;2023-07-13T02:27:37;96906.94;;;26.17;48.87
60228;BME280;46091;46.512;6.626;2023-07-13T02:29:40;96913.72;;;26.14;48.89
60228;BME280;46091;46.512;6.626;2023-07-13T02:31:43;96912.94;;;26.13;48.91
60228;BME280;46091;46.512;6.626;2023-07-13T02:33:46;96900.84;;;26.06;49.16
60228;BME280;46091;46.512;6.626;2023-07-13T02:35:49;96904.41;;;26.01;49.39
60228;BME280;46091;46.512;6.626;2023-07-13T02:37:53;96899.56;;;25.98;49.40
60228;BME280;46091;46.512;6.626;2023-07-13T02:39:55;96895.84;;;25.94;49.54
60228;BME280;46091;46.512;6.626;2023-07-13T02:41:58;96895.09;;;25.89;49.16
60228;BME280;46091;46.512;6.626;2023-07-13T02:44:03;96894.88;;;25.85;49.37
60228;BME280;46091;46.512;6.626;2023-07-13T02:46:06;96893.81;;;25.81;49.67
60228;BME280;46091;46.512;6.626;2023-07-13T02:48:10;96892.16;;;25.85;49.39
60228;BME280;46091;46.512;6.626;2023-07-13T02:50:13;96890.97;;;25.91;49.59
60228;BME280;46091;46.512;6.626;2023-07-13T02:52:15;96889.34;;;25.95;49.40
60228;BME280;46091;46.512;6.626;2023-07-13T02:54:18;96896.41;;;25.91;49.19
60228;BME280;46091;46.512;6.626;2023-07-13T02:56:23;96892.66;;;25.87;49.48
60228;BME280;46091;46.512;6.626;2023-07-13T02:58:27;96895.31;;;25.92;49.49
60228;BME280;46091;46.512;6.626;2023-07-13T03:00:31;96893.06;;;25.99;49.26
60228;BME280;46091;46.512;6.626;2023-07-13T03:02:35;96889.25;;;26.00;49.32
60228;BME280;46091;46.512;6.626;2023-07-13T03:04:38;96895.69;;;26.04;49.33
60228;BME280;46091;46.512;6.626;2023-07-13T03:06:42;96897.84;;;26.07;49.10
60228;BME280;46091;46.512;6.626;2023-07-13T03:08:45;96902.16;;;26.08;49.01
60228;BME280;46091;46.512;6.626;2023-07-13T03:10:48;96905.97;;;26.07;49.04
60228;BME280;46091;46.512;6.626;2023-07-13T03:12:51;96902.47;;;26.07;48.91
60228;BME280;46091;46.512;6.626;2023-07-13T03:14:54;96908.91;;;26.11;49.10
60228;BME280;46091;46.512;6.626;2023-07-13T03:16:58;96909.03;;;26.01;48.95
60228;BME280;46091;46.512;6.626;2023-07-13T03:19:01;96918.31;;;25.95;49.18
60228;BME280;46091;46.512;6.626;2023-07-13T03:21:05;96913.31;;;25.83;49.14
60228;BME280;46091;46.512;6.626;2023-07-13T03:23:08;96917.81;;;25.64;49.49
60228;BME280;46091;46.512;6.626;2023-07-13T03:25:11;96917.50;;;25.36;49.52
60228;BME280;46091;46.512;6.626;2023-07-13T03:27:15;96927.75;;;25.10;50.20
60228;BME280;46091;46.512;6.626;2023-07-13T03:29:18;96927.06;;;24.89;50.24
60228;BME280;46091;46.512;6.626;2023-07-13T03:31:24;96930.84;;;24.93;50.50
60228;BME280;46091;46.512;6.626;2023-07-13T03:33:29;96936.03;;;24.85;50.41
60228;BME280;46091;46.512;6.626;2023-07-13T03:35:34;96933.91;;;24.77;50.63
60228;BME280;46091;46.512;6.626;2023-07-13T03:37:37;96944.25;;;24.70;50.94
60228;BME280;46091;46.512;6.626;2023-07-13T03:39:44;96939.72;;;24.55;50.77
60228;BME280;46091;46.512;6.626;2023-07-13T03:41:47;96942.47;;;24.45;51.38
60228;BME280;46091;46.512;6.626;2023-07-13T03:43:50;96954.97;;;24.35;51.60
60228;BME280;46091;46.512;6.626;2023-07-13T03:45:53;96953.31;;;24.34;51.48
60228;BME280;46091;46.512;6.626;2023-07-13T03:47:55;96961.72;;;24.33;51.29
60228;BME280;46091;46.512;6.626;2023-07-13T03:50:00;96955.50;;;24.22;51.46
60228;BME280;46091;46.512;6.626;2023-07-13T03:52:03;96956.63;;;24.16;51.59
60228;BME280;46091;46.512;6.626;2023-07-13T03:54:06;96957.19;;;24.08;51.87
60228;BME280;46091;46.512;6.626;2023-07-13T03:56:10;96960.47;;;23.95;52.45
60228;BME280;46091;46.512;6.626;2023-07-13T03:58:33;96959.72;;;23.79;52.84
60228;BME280;46091;46.512;6.626;2023-07-13T04:00:36;96956.22;;;23.68;53.19
60228;BME280;46091;46.512;6.626;2023-07-13T04:02:39;96958.91;;;23.63;53.46
60228;BME280;46091;46.512;6.626;2023-07-13T04:04:42;96962.16;;;23.65;53.64
60228;BME280;46091;46.512;6.626;2023-07-13T04:06:47;96960.00;;;23.67;53.88
60228;BME280;46091;46.512;6.626;2023-07-13T04:08:51;96955.91;;;23.54;54.22
60228;BME280;46091;46.512;6.626;2023-07-13T04:10:54;96964.59;;;23.46;55.20
60228;BME280;46091;46.512;6.626;2023-07-13T04:12:57;96961.88;;;23.51;55.29
60228;BME280;46091;46.512;6.626;2023-07-13T04:15:00;96969.16;;;23.66;54.76
60228;BME280;46091;46.512;6.626;2023-07-13T04:17:03;96960.78;;;23.83;54.85
60228;BME280;46091;46.512;6.626;2023-07-13T04:19:08;96965.31;;;23.98;54.70
60228;BME280;46091;46.512;6.626;2023-07-13T04:21:11;96956.09;;;24.09;54.72
60228;BME280;46091;46.512;6.626;2023-07-13T04:23:16;96962.03;;;24.16;54.50
60228;BME280;46091;46.512;6.626;2023-07-13T04:25:20;96962.00;;;24.21;54.78
60228;BME280;46091;46.512;6.626;2023-07-13T04:27:23;96969.81;;;24.23;54.35
60228;BME280;46091;46.512;6.626;2023-07-13T04:29:27;96969.53;;;24.29;54.46
60228;BME280;46091;46.512;6.626;2023-07-13T04:31:30;96967.91;;;24.38;54.75
60228;BME280;46091;46.512;6.626;2023-07-13T04:33:33;96973.00;;;24.50;54.20
60228;BME280;46091;46.512;6.626;2023-07-13T04:35:36;96980.53;;;24.58;54.08
60228;BME280;46091;46.512;6.626;2023-07-13T04:37:38;96985.03;;;24.68;53.94
60228;BME280;46091;46.512;6.626;2023-07-13T04:39:43;96981.47;;;24.78;53.78
60228;BME280;46091;46.512;6.626;2023-07-13T04:41:45;96983.59;;;24.86;54.12
60228;BME280;46091;46.512;6.626;2023-07-13T04:43:48;96994.13;;;24.92;53.98
60228;BME280;46091;46.512;6.626;2023-07-13T04:45:52;96990.28;;;24.98;53.46
60228;BME280;46091;46.512;6.626;2023-07-13T04:47:55;96994.06;;;25.03;53.98
60228;BME280;46091;46.512;6.626;2023-07-13T04:49:58;96994.03;;;25.08;53.44
60228;BME280;46091;46.512;6.626;2023-07-13T04:52:01;97001.31;;;25.12;53.63
60228;BME280;46091;46.512;6.626;2023-07-13T04:54:04;97001.56;;;25.16;53.48
60228;BME280;46091;46.512;6.626;2023-07-13T04:56:10;97001.81;;;25.19;53.45
60228;BME280;46091;46.512;6.626;2023-07-13T04:58:14;97006.94;;;25.21;53.74
60228;BME280;46091;46.512;6.626;2023-07-13T05:00:17;97000.72;;;25.20;53.42
60228;BME280;46091;46.512;6.626;2023-07-13T05:02:20;97004.50;;;25.19;53.67
60228;BME280;46091;46.512;6.626;2023-07-13T05:04:23;97010.78;;;25.15;53.64
60228;BME280;46091;46.512;6.626;2023-07-13T05:06:26;97016.19;;;25.15;53.43
60228;BME280;46091;46.512;6.626;2023-07-13T05:08:28;97017.25;;;25.14;53.61
60228;BME280;46091;46.512;6.626;2023-07-13T05:10:32;97018.31;;;25.18;53.42
60228;BME280;46091;46.512;6.626;2023-07-13T05:12:36;97018.00;;;25.24;53.17
60228;BME280;46091;46.512;6.626;2023-07-13T05:14:39;97017.16;;;25.29;53.31
60228;BME280;46091;46.512;6.626;2023-07-13T05:16:42;97022.00;;;25.32;53.38
60228;BME280;46091;46.512;6.626;2023-07-13T05:18:45;97026.31;;;25.33;53.08
60228;BME280;46091;46.512;6.626;2023-07-13T05:20:54;97029.56;;;25.35;53.22
60228;BME280;46091;46.512;6.626;2023-07-13T05:22:57;97026.31;;;25.38;53.19
60228;BME280;46091;46.512;6.626;2023-07-13T05:25:00;97030.06;;;25.42;53.31
60228;BME280;46091;46.512;6.626;2023-07-13T05:27:02;97031.38;;;25.45;53.22
60228;BME280;46091;46.512;6.626;2023-07-13T05:29:06;97022.97;;;25.46;53.25
60228;BME280;46091;46.512;6.626;2023-07-13T05:31:10;97027.03;;;25.49;53.18
60228;BME280;46091;46.512;6.626;2023-07-13T05:33:13;97027.84;;;25.49;53.37
60228;BME280;46091;46.512;6.626;2023-07-13T05:35:16;97032.72;;;25.47;53.34
60228;BME280;46091;46.512;6.626;2023-07-13T05:37:19;97022.16;;;25.46;53.19
60228;BME280;46091;46.512;6.626;2023-07-13T05:39:22;97019.75;;;25.44;53.04
60228;BME280;46091;46.512;6.626;2023-07-13T05:41:26;97021.34;;;25.45;53.01
60228;BME280;46091;46.512;6.626;2023-07-13T05:43:28;97023.53;;;25.48;53.10
60228;BME280;46091;46.512;6.626;2023-07-13T05:45:33;97029.75;;;25.49;52.96
60228;BME280;46091;46.512;6.626;2023-07-13T05:47:35;97033.25;;;25.49;52.93
60228;BME280;46091;46.512;6.626;2023-07-13T05:49:39;97037.56;;;25.50;53.07
60228;BME280;46091;46.512;6.626;2023-07-13T05:51:41;97040.56;;;25.49;53.02
60228;BME280;46091;46.512;6.626;2023-07-13T05:53:44;97043.53;;;25.47;52.97
60228;BME280;46091;46.512;6.626;2023-07-13T05:55:47;97038.75;;;25.39;52.95
60228;BME280;46091;46.512;6.626;2023-07-13T05:57:51;97041.97;;;25.41;52.71
60228;BME280;46091;46.512;6.626;2023-07-13T05:59:54;97051.66;;;25.47;52.97
60228;BME280;46091;46.512;6.626;2023-07-13T06:01:57;97051.34;;;25.54;52.47
60228;BME280;46091;46.512;6.626;2023-07-13T06:04:00;97045.66;;;25.55;52.56
60228;BME280;46091;46.512;6.626;2023-07-13T06:06:04;97052.66;;;25.57;52.81
60228;BME280;46091;46.512;6.626;2023-07-13T06:08:08;97046.97;;;25.58;52.55
60228;BME280;46091;46.512;6.626;2023-07-13T06:10:10;97058.59;;;25.59;52.53
60228;BME280;46091;46.512;6.626;2023-07-13T06:12:13;97060.50;;;25.58;52.90
60228;BME280;46091;46.512;6.626;2023-07-13T06:14:16;97064.81;;;25.59;52.49
60228;BME280;46091;46.512;6.626;2023-07-13T06:16:19;97065.66;;;25.60;52.79
60228;BME280;46091;46.512;6.626;2023-07-13T06:18:24;97072.69;;;25.61;52.88
60228;BME280;46091;46.512;6.626;2023-07-13T06:20:27;97074.31;;;25.62;52.84
60228;BME280;46091;46.512;6.626;2023-07-13T06:22:30;97079.44;;;25.63;53.00
60228;BME280;46091;46.512;6.626;2023-07-13T06:24:33;97081.34;;;25.63;52.73
60228;BME280;46091;46.512;6.626;2023-07-13T06:26:36;97094.88;;;25.63;53.00
60228;BME280;46091;46.512;6.626;2023-07-13T06:28:39;97102.41;;;25.66;52.97
60228;BME280;46091;46.512;6.626;2023-07-13T06:30:42;97110.00;;;25.64;52.58
60228;BME280;46091;46.512;6.626;2023-07-13T06:32:45;97113.81;;;25.63;52.75
60228;BME280;46091;46.512;6.626;2023-07-13T06:34:49;97104.09;;;25.62;53.03
60228;BME280;46091;46.512;6.626;2023-07-13T06:36:53;97099.75;;;25.61;52.70
60228;BME280;46091;46.512;6.626;2023-07-13T06:38:56;97094.34;;;25.61;53.17
60228;BME280;46091;46.512;6.626;2023-07-13T06:40:59;97097.56;;;25.63;52.93
60228;BME280;46091;46.512;6.626;2023-07-13T06:43:02;97101.09;;;25.63;53.29
60228;BME280;46091;46.512;6.626;2023-07-13T06:45:05;97104.59;;;25.64;53.07
60228;BME280;46091;46.512;6.626;2023-07-13T06:47:08;97097.56;;;25.63;53.23
60228;BME280;46091;46.512;6.626;2023-07-13T06:49:12;97099.19;;;25.64;53.35
60228;BME280;46091;46.512;6.626;2023-07-13T06:51:16;97104.31;;;25.65;53.20
60228;BME280;46091;46.512;6.626;2023-07-13T06:53:19;97104.84;;;25.67;53.44
60228;BME280;46091;46.512;6.626;2023-07-13T06:55:21;97105.38;;;25.69;53.32
60228;BME280;46091;46.512;6.626;2023-07-13T06:57:24;97108.91;;;25.70;53.32
60228;BME280;46091;46.512;6.626;2023-07-13T06:59:28;97112.41;;;25.70;53.23
60228;BME280;46091;46.512;6.626;2023-07-13T07:01:30;97110.81;;;25.69;53.41
60228;BME280;46091;46.512;6.626;2023-07-13T07:03:34;97114.06;;;25.71;53.25
60228;BME280;46091;46.512;6.626;2023-07-13T07:05:37;97112.69;;;25.74;53.46
60228;BME280;46091;46.512;6.626;2023-07-13T07:07:40;97117.53;;;25.77;53.27
60228;BME280;46091;46.512;6.626;2023-07-13T07:09:43;97119.66;;;25.80;53.34
60228;BME280;46091;46.512;6.626;2023-07-13T07:11:46;97124.56;;;25.78;53.42
60228;BME280;46091;46.512;6.626;2023-07-13T07:14:03;97124.03;;;25.76;53.32
60228;BME280;46091;46.512;6.626;2023-07-13T07:16:06;97127.31;;;25.73;53.65
60228;BME280;46091;46.512;6.626;2023-07-13T07:18:08;97127.59;;;25.71;53.56
60228;BME280;46091;46.512;6.626;2023-07-13T07:20:11;97129.22;;;25.72;53.60
60228;BME280;46091;46.512;6.626;2023-07-13T07:22:14;97134.88;;;25.71;53.45
60228;BME280;46091;46.512;6.626;2023-07-13T07:24:19;97135.16;;;25.69;53.47
60228;BME280;46091;46.512;6.626;2023-07-13T07:26:21;97132.72;;;25.68;53.62
60228;BME280;46091;46.512;6.626;2023-07-13T07:28:28;97125.41;;;25.68;53.62
60228;BME280;46091;46.512;6.626;2023-07-13T07:30:46;97133.28;;;25.70;53.96
60228;BME280;46091;46.512;6.626;2023-07-13T07:32:52;97127.84;;;25.75;54.03
60228;BME280;46091;46.512;6.626;2023-07-13T07:34:58;97122.63;;;25.83;53.68
60228;BME280;46091;46.512;6.626;2023-07-13T07:37:01;97121.47;;;25.90;53.82
60228;BME280;46091;46.512;6.626;2023-07-13T07:39:07;97121.47;;;25.95;53.61
60228;BME280;46091;46.512;6.626;2023-07-13T07:41:13;97117.38;;;25.97;53.60
60228;BME280;46091;46.512;6.626;2023-07-13T07:43:19;97118.47;;;25.96;54.07
60228;BME280;46091;46.512;6.626;2023-07-13T07:45:22;97126.00;;;25.99;53.96
60228;BME280;46091;46.512;6.626;2023-07-13T07:47:25;97109.47;;;26.01;54.02
60228;BME280;46091;46.512;6.626;2023-07-13T07:49:28;97119.50;;;26.00;53.87
60228;BME280;46091;46.512;6.626;2023-07-13T07:51:31;97125.72;;;26.01;54.19
60228;BME280;46091;46.512;6.626;2023-07-13T07:53:33;97122.50;;;25.99;53.93
60228;BME280;46091;46.512;6.626;2023-07-13T07:55:36;97121.97;;;25.97;54.06
60228;BME280;46091;46.512;6.626;2023-07-13T07:57:44;97124.09;;;26.00;54.02
60228;BME280;46091;46.512;6.626;2023-07-13T07:59:50;97129.75;;;26.03;53.91
60228;BME280;46091;46.512;6.626;2023-07-13T08:01:55;97125.97;;;26.04;54.13
60228;BME280;46091;46.512;6.626;2023-07-13T08:04:01;97135.19;;;26.03;53.56
60228;BME280;46091;46.512;6.626;2023-07-13T08:06:07;97130.84;;;26.02;54.04
60228;BME280;46091;46.512;6.626;2023-07-13T08:08:30;97134.94;;;26.00;54.09
60228;BME280;46091;46.512;6.626;2023-07-13T08:10:35;97132.53;;;25.98;53.89
60228;BME280;46091;46.512;6.626;2023-07-13T08:12:39;97130.34;;;26.00;54.08
60228;BME280;46091;46.512;6.626;2023-07-13T08:14:49;97133.03;;;26.00;54.10
60228;BME280;46091;46.512;6.626;2023-07-13T08:16:55;97144.69;;;26.01;53.74
60228;BME280;46091;46.512;6.626;2023-07-13T08:18:57;97133.03;;;26.00;54.11
60228;BME280;46091;46.512;6.626;2023-07-13T08:21:03;97136.56;;;26.01;53.72
60228;BME280;46091;46.512;6.626;2023-07-13T08:23:07;97140.06;;;26.01;53.83
60228;BME280;46091;46.512;6.626;2023-07-13T08:25:11;97140.38;;;26.00;53.84
60228;BME280;46091;46.512;6.626;2023-07-13T08:27:14;97149.31;;;26.00;53.81
60228;BME280;46091;46.512;6.626;2023-07-13T08:29:18;97150.63;;;26.03;53.58
60228;BME280;46091;46.512;6.626;2023-07-13T08:31:22;97153.59;;;26.06;53.73
60228;BME280;46091;46.512;6.626;2023-07-13T08:33:25;97147.09;;;26.07;53.49
60228;BME280;46091;46.512;6.626;2023-07-13T08:35:28;97146.28;;;26.07;53.43
60228;BME280;46091;46.512;6.626;2023-07-13T08:37:31;97144.91;;;26.09;53.41
60228;BME280;46091;46.512;6.626;2023-07-13T08:39:34;97143.50;;;26.12;53.38
60228;BME280;46091;46.512;6.626;2023-07-13T08:41:37;97141.91;;;26.11;53.51
60228;BME280;46091;46.512;6.626;2023-07-13T08:43:41;97149.22;;;26.10;53.58
60228;BME280;46091;46.512;6.626;2023-07-13T08:45:48;97147.59;;;26.09;53.66
60228;BME280;46091;46.512;6.626;2023-07-13T08:47:57;97148.69;;;26.08;53.39
60228;BME280;46091;46.512;6.626;2023-07-13T08:50:03;97150.63;;;26.03;53.23
60228;BME280;46091;46.512;6.626;2023-07-13T08:52:12;97153.34;;;26.03;53.30
60228;BME280;46091;46.512;6.626;2023-07-13T08:54:21;97151.19;;;26.05;53.28
60228;BME280;46091;46.512;6.626;2023-07-13T08:56:29;97154.13;;;26.08;53.30
60228;BME280;46091;46.512;6.626;2023-07-13T08:58:33;97160.06;;;26.10;53.04
60228;BME280;46091;46.512;6.626;2023-07-13T09:00:43;97159.53;;;26.08;52.90
60228;BME280;46091;46.512;6.626;2023-07-13T09:02:55;97156.31;;;26.06;52.94
60228;BME280;46091;46.512;6.626;2023-07-13T09:05:01;97157.34;;;26.10;52.95
60228;BME280;46091;46.512;6.626;2023-07-13T09:07:14;97155.13;;;26.18;52.93
60228;BME280;46091;46.512;6.626;2023-07-13T09:09:25;97155.06;;;26.23;52.98
60228;BME280;46091;46.512;6.626;2023-07-13T09:11:45;97158.81;;;26.27;52.82
60228;BME280;46091;46.512;6.626;2023-07-13T09:13:57;97150.13;;;26.30;52.54
60228;BME280;46091;46.512;6.626;2023-07-13T09:16:03;97150.66;;;26.32;52.54
60228;BME280;46091;46.512;6.626;2023-07-13T09:18:11;97144.94;;;26.33;52.65
60228;BME280;46091;46.512;6.626;2023-07-13T09:20:22;97149.81;;;26.36;52.26
60228;BME280;46091;46.512;6.626;2023-07-13T09:22:29;97153.03;;;26.38;52.49
60228;BME280;46091;46.512;6.626;2023-07-13T09:24:38;97153.31;;;26.42;52.42
60228;BME280;46091;46.512;6.626;2023-07-13T09:26:42;97167.38;;;26.44;52.33
60228;BME280;46091;46.512;6.626;2023-07-13T09:28:45;97156.53;;;26.44;52.06
60228;BME280;46091;46.512;6.626;2023-07-13T09:30:51;97151.09;;;26.44;52.20
60228;BME280;46091;46.512;6.626;2023-07-13T09:32:55;97158.94;;;26.46;52.00
60228;BME280;46091;46.512;6.626;2023-07-13T09:35:01;97155.44;;;26.45;52.05
60228;BME280;46091;46.512;6.626;2023-07-13T09:37:11;97147.31;;;26.45;51.94
60228;BME280;46091;46.512;6.626;2023-07-13T09:39:27;97160.34;;;26.43;51.97
60228;BME280;46091;46.512;6.626;2023-07-13T09:41:36;97158.72;;;26.42;51.95
60228;BME280;46091;46.512;6.626;2023-07-13T09:44:02;97160.91;;;26.40;51.88
60228;BME280;46091;46.512;6.626;2023-07-13T09:46:20;97159.56;;;26.37;51.84
60228;BME280;46091;46.512;6.626;2023-07-13T09:48:24;97163.63;;;26.35;51.91
60228;BME280;46091;46.512;6.626;2023-07-13T09:50:28;97169.91;;;26.30;51.76
60228;BME280;46091;46.512;6.626;2023-07-13T09:52:41;97174.53;;;26.30;51.79
60228;BME280;46091;46.512;6.626;2023-07-13T09:54:48;97173.94;;;26.33;51.65
60228;BME280;46091;46.512;6.626;2023-07-13T09:56:55;97165.81;;;26.33;51.77
60228;BME280;46091;46.512;6.626;2023-07-13T09:58:58;97172.63;;;26.30;51.61
60228;BME280;46091;46.512;6.626;2023-07-13T10:01:03;97180.50;;;26.27;51.48
60228;BME280;46091;46.512;6.626;2023-07-13T10:03:17;97179.16;;;26.29;51.61
60228;BME280;46091;46.512;6.626;2023-07-13T10:05:22;97174.25;;;26.31;51.55
60228;BME280;46091;46.512;6.626;2023-07-13T10:07:27;97190.78;;;26.30;51.62
60228;BME280;46091;46.512;6.626;2023-07-13T10:09:31;97183.22;;;26.27;51.37
60228;BME280;46091;46.512;6.626;2023-07-13T10:11:35;97178.34;;;26.29;51.22
60228;BME280;46091;46.512;6.626;2023-07-13T10:13:41;97181.03;;;26.29;51.35
60228;BME280;46091;46.512;6.626;2023-07-13T10:15:45;97182.66;;;26.30;51.41
60228;BME280;46091;46.512;6.626;2023-07-13T10:17:47;97183.47;;;26.30;51.43
60228;BME280;46091;46.512;6.626;2023-07-13T10:19:51;97178.84;;;26.31;51.25
60228;BME280;46091;46.512;6.626;2023-07-13T10:21:55;97182.66;;;26.30;51.29
60228;BME280;46091;46.512;6.626;2023-07-13T10:24:09;97177.25;;;26.30;51.07
60228;BME280;46091;46.512;6.626;2023-07-13T10:26:18;97177.25;;;26.30;51.33
60228;BME280;46091;46.512;6.626;2023-07-13T10:28:27;97180.47;;;26.32;51.23
60228;BME280;46091;46.512;6.626;2023-07-13T10:30:33;97183.69;;;26.34;51.26
60228;BME280;46091;46.512;6.626;2023-07-13T10:32:38;97178.78;;;26.36;51.22
60228;BME280;46091;46.512;6.626;2023-07-13T10:34:43;97183.97;;;26.37;50.91
60228;BME280;46091;46.512;6.626;2023-07-13T10:36:48;97183.69;;;26.39;50.97
60228;BME280;46091;46.512;6.626;2023-07-13T10:38:51;97190.72;;;26.40;50.75
60228;BME280;46091;46.512;6.626;2023-07-13T10:40:58;97183.63;;;26.44;50.87
60228;BME280;46091;46.512;6.626;2023-07-13T10:43:11;97186.88;;;26.46;50.78
60228;BME280;46091;46.512;6.626;2023-07-13T10:45:18;97184.69;;;26.48;50.72
60228;BME280;46091;46.512;6.626;2023-07-13T10:47:22;97191.44;;;26.51;50.57
60228;BME280;46091;46.512;6.626;2023-07-13T10:49:27;97189.53;;;26.51;50.80
60228;BME280;46091;46.512;6.626;2023-07-13T10:51:31;97190.91;;;26.49;50.34
60228;BME280;46091;46.512;6.626;2023-07-13T10:53:36;97192.00;;;26.48;50.54
60228;BME280;46091;46.512;6.626;2023-07-13T10:55:55;97190.91;;;26.49;50.34
60228;BME280;46091;46.512;6.626;2023-07-13T10:58:02;97191.44;;;26.51;50.37
60228;BME280;46091;46.512;6.626;2023-07-13T11:00:15;97194.97;;;26.51;50.09